Boulder Hill, Illinois
Current Conditions -  °F | °C
As of 7:52 PM on Sunday 25 Jan 2015 (Local Time) from KARR Reporting Station
Overcast Overcast  
Wind Chill: 13°   Ceiling: 5500
Heat Index: 26°   Visibility: 10mi
Dew Point: 15°   Wind: 17mph
Humidity: 63%   Direction: 10°N
Pressure: 29.98"   Gusts: 23mph
Location:  41.7195°N, 88.3183°W
Report Text: KARR 260152Z 01015G20KT 10SM OVC055 M03/M09 A2998 RMK AO2 SLP159 T10331094 $
Loading
Personal Weather Stations






























Interactive Weather Map New forecast layout! Learn more

10-Day Weather Forecast

Advertisements
Track Severe Weather on mobile